createdAt,value
2019-03-22T00:00:44.329Z,85.47
2019-03-22T00:01:44.315Z,85.06
2019-03-22T00:02:44.305Z,85.74
2019-03-22T00:03:44.311Z,86.08
2019-03-22T00:04:44.281Z,85.78
2019-03-22T00:05:44.268Z,85.88
2019-03-22T00:06:44.257Z,85.57
2019-03-22T00:07:44.262Z,86.08
2019-03-22T00:08:44.252Z,86.08
2019-03-22T00:09:44.226Z,85.78
2019-03-22T00:10:44.241Z,85.78
2019-03-22T00:11:44.197Z,85.68
2019-03-22T00:12:44.214Z,85.78
2019-03-22T00:13:44.192Z,85.57
2019-03-22T00:14:44.159Z,86.80
2019-03-22T00:15:44.148Z,86.60
2019-03-22T00:16:44.137Z,86.91
2019-03-22T00:17:44.126Z,86.91
2019-03-22T00:18:44.187Z,86.95
2019-03-22T00:19:44.103Z,86.43
2019-03-22T00:20:44.089Z,86.95
2019-03-22T00:21:44.079Z,86.43
2019-03-22T00:22:44.066Z,86.43
2019-03-22T00:23:44.056Z,86.74
2019-03-22T00:24:44.065Z,86.88
2019-03-22T00:25:44.031Z,86.37
2019-03-22T00:26:44.020Z,86.88
2019-03-22T00:27:44.006Z,86.79
2019-03-22T00:28:43.994Z,87.40
2019-03-22T00:29:44.007Z,87.34
2019-03-22T00:30:43.970Z,87.65
2019-03-22T00:31:43.964Z,88.47
2019-03-22T00:32:43.951Z,88.33
2019-03-22T00:33:43.935Z,88.43
2019-03-22T00:34:43.944Z,87.92
2019-03-22T00:35:43.915Z,88.33
2019-03-22T00:36:43.901Z,88.33
2019-03-22T00:37:43.891Z,88.43
2019-03-22T00:38:43.877Z,88.12
2019-03-22T00:39:43.906Z,88.12
2019-03-22T00:40:43.856Z,88.43
2019-03-22T00:41:43.846Z,88.23
2019-03-22T00:42:43.836Z,88.08
2019-03-22T00:43:43.822Z,88.12
2019-03-22T00:44:43.811Z,88.33
2019-03-22T00:45:43.819Z,88.06
2019-03-22T00:46:43.787Z,88.12
2019-03-22T00:47:43.775Z,88.33
2019-03-22T00:48:43.765Z,88.43
2019-03-22T00:49:43.754Z,88.53
2019-03-22T00:50:43.761Z,88.33
2019-03-22T00:51:43.732Z,88.43
2019-03-22T00:52:43.719Z,88.02
2019-03-22T00:53:43.706Z,88.33
2019-03-22T00:54:43.697Z,88.17
2019-03-22T00:55:43.753Z,88.37
2019-03-22T00:56:43.671Z,88.17
2019-03-22T00:57:43.686Z,88.47
2019-03-22T00:58:43.650Z,88.47
2019-03-22T00:59:43.641Z,88.57
2019-03-22T01:00:43.654Z,88.92
2019-03-22T01:01:43.645Z,89.19
2019-03-22T01:02:43.612Z,89.34
2019-03-22T01:03:43.592Z,89.34
2019-03-22T01:04:43.581Z,89.23
2019-03-22T01:05:43.603Z,88.82
2019-03-22T01:06:43.560Z,89.13
2019-03-22T01:07:43.547Z,88.82
2019-03-22T01:08:43.536Z,89.23
2019-03-22T01:09:43.558Z,89.23
2019-03-22T01:10:43.513Z,89.54
2019-03-22T01:11:43.518Z,89.75
2019-03-22T01:12:43.490Z,89.75
2019-03-22T01:13:43.481Z,89.44
2019-03-22T01:14:43.467Z,89.44
2019-03-22T01:15:43.456Z,89.44
2019-03-22T01:16:43.515Z,89.23
2019-03-22T01:17:43.433Z,89.23
2019-03-22T01:18:43.424Z,89.79
2019-03-22T01:19:43.411Z,90.10
2019-03-22T01:20:43.400Z,89.54
2019-03-22T01:21:43.408Z,89.38
2019-03-22T01:22:43.375Z,89.89
2019-03-22T01:23:43.364Z,90.47
2019-03-22T01:24:43.377Z,90.67
2019-03-22T01:25:43.341Z,90.31
2019-03-22T01:26:43.349Z,90.41
2019-03-22T01:27:43.322Z,89.89
2019-03-22T01:28:43.308Z,90.41
2019-03-22T01:29:43.321Z,90.41
2019-03-22T01:30:43.285Z,89.89
2019-03-22T01:31:43.295Z,90.20
2019-03-22T01:32:43.262Z,90.51
2019-03-22T01:33:43.249Z,90.51
2019-03-22T01:34:43.239Z,89.89
2019-03-22T01:35:43.230Z,90.10
2019-03-22T01:36:43.217Z,89.69
2019-03-22T01:37:43.227Z,90.20
2019-03-22T01:38:43.218Z,90.66
2019-03-22T01:39:43.181Z,90.82
2019-03-22T01:40:43.170Z,90.35
2019-03-22T01:41:43.159Z,90.55
2019-03-22T01:42:43.165Z,91.64
2019-03-22T01:43:43.134Z,91.54
2019-03-22T01:44:43.123Z,91.69
2019-03-22T01:45:43.110Z,91.03
2019-03-22T01:46:43.102Z,91.28
2019-03-22T01:47:43.108Z,91.28
2019-03-22T01:48:43.077Z,91.13
2019-03-22T01:49:43.065Z,91.38
2019-03-22T01:50:43.053Z,91.28
2019-03-22T01:51:43.044Z,91.13
2019-03-22T01:52:43.050Z,91.48
2019-03-22T01:53:43.020Z,91.34
2019-03-22T01:54:43.009Z,91.03
2019-03-22T01:55:42.997Z,90.97
2019-03-22T01:56:42.985Z,91.48
2019-03-22T01:57:52.517Z,91.54
2019-03-22T01:58:43.963Z,91.44
2019-03-22T01:59:42.952Z,91.34
2019-03-22T02:00:42.942Z,91.44
2019-03-22T02:01:42.928Z,91.34
2019-03-22T02:02:42.942Z,91.24
2019-03-22T02:03:42.907Z,90.92
2019-03-22T02:04:42.898Z,90.61
2019-03-22T02:05:42.884Z,90.92
2019-03-22T02:06:42.876Z,90.92
2019-03-22T02:07:42.882Z,90.82
2019-03-22T02:08:42.959Z,90.92
2019-03-22T02:09:42.837Z,91.07
2019-03-22T02:10:42.829Z,91.44
2019-03-22T02:11:42.819Z,90.92
2019-03-22T02:12:42.835Z,90.66
2019-03-22T02:13:42.793Z,90.45
2019-03-22T02:14:42.780Z,91.28
2019-03-22T02:15:42.772Z,91.48
2019-03-22T02:16:42.758Z,91.58
2019-03-22T02:17:42.748Z,91.24
2019-03-22T02:18:42.755Z,91.28
2019-03-22T02:19:42.725Z,91.69
2019-03-22T02:20:42.712Z,91.58
2019-03-22T02:21:42.700Z,91.38
2019-03-22T02:22:42.689Z,91.07
2019-03-22T02:23:42.694Z,91.38
2019-03-22T02:24:42.665Z,91.83
2019-03-22T02:25:42.653Z,91.73
2019-03-22T02:26:42.648Z,91.63
2019-03-22T02:27:42.636Z,91.58
2019-03-22T02:28:42.641Z,91.73
2019-03-22T02:29:44.431Z,91.89
2019-03-22T02:30:42.597Z,91.94
2019-03-22T02:31:42.586Z,92.25
2019-03-22T02:32:42.577Z,92.14
2019-03-22T02:33:42.612Z,92.14
2019-03-22T02:34:49.625Z,92.14
2019-03-22T02:35:42.544Z,92.25
2019-03-22T02:36:42.532Z,92.35
2019-03-22T02:37:42.521Z,91.63
2019-03-22T02:38:42.526Z,91.42
2019-03-22T02:39:42.621Z,91.22
2019-03-22T02:40:42.486Z,91.98
2019-03-22T02:41:42.476Z,91.94
2019-03-22T02:42:45.091Z,92.35
2019-03-22T02:43:42.468Z,92.66
2019-03-22T02:44:42.436Z,92.97
2019-03-22T02:45:42.432Z,93.32
2019-03-22T02:46:42.415Z,92.55
2019-03-22T02:47:42.409Z,92.25
2019-03-22T02:48:42.414Z,92.55
2019-03-22T02:49:42.384Z,92.46
2019-03-22T02:50:42.392Z,93.18
2019-03-22T02:51:42.357Z,92.66
2019-03-22T02:52:42.360Z,93.18
2019-03-22T02:53:42.385Z,92.72
2019-03-22T02:54:42.328Z,92.55
2019-03-22T02:55:42.366Z,92.66
2019-03-22T02:56:42.302Z,92.14
2019-03-22T02:57:42.290Z,92.55
2019-03-22T02:58:42.297Z,92.55
2019-03-22T02:59:42.265Z,92.19
2019-03-22T03:00:42.255Z,92.35
2019-03-22T03:01:42.246Z,92.04
2019-03-22T03:02:42.234Z,92.35
2019-03-22T03:03:42.246Z,91.94
2019-03-22T03:04:42.210Z,92.66
2019-03-22T03:05:42.197Z,92.04
2019-03-22T03:06:42.186Z,92.35
2019-03-22T03:07:42.174Z,92.66
2019-03-22T03:08:42.182Z,92.46
2019-03-22T03:09:42.167Z,92.35
2019-03-22T03:10:42.142Z,92.46
2019-03-22T03:11:42.131Z,92.60
2019-03-22T03:12:42.114Z,92.25
2019-03-22T03:13:42.121Z,92.66
2019-03-22T03:14:42.094Z,92.55
2019-03-22T03:15:42.082Z,92.60
2019-03-22T03:16:42.068Z,92.70
2019-03-22T03:17:42.057Z,93.12
2019-03-22T03:18:42.079Z,92.70
2019-03-22T03:19:42.035Z,93.12
2019-03-22T03:20:42.025Z,93.43
2019-03-22T03:21:42.009Z,93.32
2019-03-22T03:22:41.997Z,93.53
2019-03-22T03:23:42.006Z,92.29
2019-03-22T03:24:41.975Z,93.01
2019-03-22T03:25:41.964Z,92.80
2019-03-22T03:26:41.953Z,93.01
2019-03-22T03:27:41.940Z,93.01
2019-03-22T03:28:41.948Z,92.80
2019-03-22T03:29:41.919Z,92.70
2019-03-22T03:30:41.921Z,93.01
2019-03-22T03:31:41.904Z,92.91
2019-03-22T03:32:41.899Z,93.01
2019-03-22T03:33:41.898Z,92.80
2019-03-22T03:34:41.869Z,92.70
2019-03-22T03:35:41.849Z,92.80
2019-03-22T03:36:41.836Z,92.95
2019-03-22T03:37:41.822Z,92.85
2019-03-22T03:38:41.837Z,93.16
2019-03-22T03:39:41.808Z,93.37
2019-03-22T03:40:41.791Z,93.68
2019-03-22T03:41:41.784Z,93.47
2019-03-22T03:42:41.772Z,93.57
2019-03-22T03:43:41.753Z,93.32
2019-03-22T03:44:41.758Z,93.68
2019-03-22T03:45:41.736Z,93.26
2019-03-22T03:46:41.745Z,93.43
2019-03-22T03:47:41.707Z,93.22
2019-03-22T03:48:41.695Z,92.85
2019-03-22T03:49:41.710Z,93.26
2019-03-22T03:50:41.671Z,93.05
2019-03-22T03:51:41.659Z,93.16
2019-03-22T03:52:41.649Z,93.68
2019-03-22T03:53:41.644Z,93.47
2019-03-22T03:54:41.643Z,93.47
2019-03-22T03:55:41.611Z,93.68
2019-03-22T03:56:41.601Z,93.57
2019-03-22T03:57:41.592Z,92.85
2019-03-22T03:58:52.358Z,93.68
2019-03-22T03:59:42.584Z,93.37
2019-03-22T04:00:41.559Z,93.68
2019-03-22T04:01:41.543Z,93.05
2019-03-22T04:02:41.531Z,93.57
2019-03-22T04:03:41.521Z,92.85
2019-03-22T04:04:41.526Z,92.85
2019-03-22T04:05:41.507Z,93.26
2019-03-22T04:06:41.492Z,92.85
2019-03-22T04:07:41.476Z,93.05
2019-03-22T04:08:41.466Z,93.47
2019-03-22T04:09:41.476Z,93.47
2019-03-22T04:10:41.445Z,93.26
2019-03-22T04:11:41.471Z,93.47
2019-03-22T04:12:41.451Z,93.37
2019-03-22T04:13:41.401Z,93.57
2019-03-22T04:14:41.414Z,93.16
2019-03-22T04:15:41.381Z,93.57
2019-03-22T04:16:41.368Z,92.99
2019-03-22T04:17:41.363Z,93.47
2019-03-22T04:18:41.342Z,93.47
2019-03-22T04:19:41.339Z,93.41
2019-03-22T04:20:41.339Z,93.57
2019-03-22T04:21:41.309Z,93.20
2019-03-22T04:22:41.300Z,93.16
2019-03-22T04:23:41.293Z,93.41
2019-03-22T04:24:41.275Z,93.05
2019-03-22T04:25:41.290Z,93.62
2019-03-22T04:26:41.252Z,93.41
2019-03-22T04:27:41.240Z,93.93
2019-03-22T04:28:41.228Z,94.13
2019-03-22T04:29:41.219Z,94.34
2019-03-22T04:30:41.221Z,94.44
2019-03-22T04:31:41.192Z,94.34
2019-03-22T04:32:41.184Z,94.38
2019-03-22T04:33:41.169Z,94.13
2019-03-22T04:34:41.156Z,94.13
2019-03-22T04:35:41.165Z,93.93
2019-03-22T04:36:41.137Z,94.07
2019-03-22T04:37:41.120Z,94.07
2019-03-22T04:38:41.111Z,93.87
2019-03-22T04:39:41.108Z,94.18
2019-03-22T04:40:41.107Z,94.28
2019-03-22T04:41:41.079Z,95.00
2019-03-22T04:42:41.063Z,94.79
2019-03-22T04:43:41.051Z,95.21
2019-03-22T04:44:41.043Z,95.00
2019-03-22T04:45:41.053Z,94.79
2019-03-22T04:46:41.021Z,94.59
2019-03-22T04:47:41.011Z,94.48
2019-03-22T04:48:40.991Z,95.17
2019-03-22T04:49:40.981Z,95.10
2019-03-22T04:50:40.971Z,94.90
2019-03-22T04:51:40.978Z,94.90
2019-03-22T04:52:40.949Z,95.10
2019-03-22T04:53:40.946Z,95.21
2019-03-22T04:54:40.927Z,94.90
2019-03-22T04:55:40.913Z,95.10
2019-03-22T04:56:40.922Z,94.48
2019-03-22T04:57:40.889Z,94.59
2019-03-22T04:58:40.879Z,94.28
2019-03-22T04:59:40.864Z,94.44
2019-03-22T05:00:40.853Z,94.28
2019-03-22T05:01:40.860Z,93.97
2019-03-22T05:02:40.835Z,94.18
2019-03-22T05:03:40.828Z,93.93
2019-03-22T05:04:40.808Z,94.28
2019-03-22T05:05:40.797Z,94.28
2019-03-22T05:06:40.817Z,93.97
2019-03-22T05:07:40.774Z,93.97
2019-03-22T05:08:40.765Z,94.28
2019-03-22T05:09:40.752Z,94.34
2019-03-22T05:10:40.740Z,94.28
2019-03-22T05:11:40.731Z,94.28
2019-03-22T05:12:40.739Z,94.28
2019-03-22T05:13:40.707Z,94.38
2019-03-22T05:14:40.698Z,94.28
2019-03-22T05:15:40.683Z,94.18
2019-03-22T05:16:40.676Z,94.07
2019-03-22T05:17:40.681Z,94.07
2019-03-22T05:18:40.648Z,94.03
2019-03-22T05:19:40.639Z,93.97
2019-03-22T05:20:40.628Z,94.07
2019-03-22T05:21:40.614Z,94.07
2019-03-22T05:22:40.621Z,94.18
2019-03-22T05:23:40.591Z,94.18
2019-03-22T05:24:40.578Z,94.38
2019-03-22T05:25:40.573Z,94.59
2019-03-22T05:26:40.558Z,94.28
2019-03-22T05:27:40.567Z,94.59
2019-03-22T05:28:40.534Z,94.28
2019-03-22T05:29:40.521Z,95.10
2019-03-22T05:30:40.510Z,95.00
2019-03-22T05:31:40.497Z,95.10
2019-03-22T05:32:40.506Z,95.21
2019-03-22T05:33:40.474Z,94.69
2019-03-22T05:34:40.466Z,95.21
2019-03-22T05:35:40.452Z,95.00
2019-03-22T05:36:40.447Z,95.00
2019-03-22T05:37:40.449Z,94.90
2019-03-22T05:38:40.416Z,95.10
2019-03-22T05:39:40.408Z,95.21
2019-03-22T05:40:40.398Z,94.69
2019-03-22T05:41:40.382Z,95.00
2019-03-22T05:42:40.396Z,94.48
2019-03-22T05:43:40.365Z,94.38
2019-03-22T05:44:40.351Z,94.48
2019-03-22T05:45:40.341Z,94.28
2019-03-22T05:46:40.335Z,94.38
2019-03-22T05:47:40.320Z,94.12
2019-03-22T05:48:40.323Z,94.28
2019-03-22T05:49:40.293Z,94.28
2019-03-22T05:50:40.281Z,94.32
2019-03-22T05:51:40.269Z,93.97
2019-03-22T05:52:40.256Z,94.01
2019-03-22T05:53:40.265Z,93.76
2019-03-22T05:54:40.234Z,94.12
2019-03-22T05:55:40.223Z,93.87
2019-03-22T05:56:40.219Z,94.18
2019-03-22T05:57:40.200Z,94.18
2019-03-22T05:58:40.207Z,94.22
2019-03-22T05:59:42.834Z,94.38
2019-03-22T06:00:40.176Z,94.18
2019-03-22T06:01:40.166Z,93.35
2019-03-22T06:02:40.145Z,93.45
2019-03-22T06:03:40.152Z,93.55
2019-03-22T06:04:40.129Z,93.66
2019-03-22T06:05:40.116Z,93.66
2019-03-22T06:06:40.099Z,93.30
2019-03-22T06:07:40.090Z,92.99
2019-03-22T06:08:40.103Z,92.99
2019-03-22T06:09:40.063Z,93.41
2019-03-22T06:10:40.067Z,92.79
2019-03-22T06:11:40.045Z,92.99
2019-03-22T06:12:40.032Z,92.58
2019-03-22T06:13:40.018Z,92.44
2019-03-22T06:14:40.028Z,92.48
2019-03-22T06:15:39.993Z,92.02
2019-03-22T06:16:39.983Z,92.23
2019-03-22T06:17:50.921Z,92.23
2019-03-22T06:18:40.960Z,92.02
2019-03-22T06:19:39.966Z,91.61
2019-03-22T06:20:39.936Z,91.61
2019-03-22T06:21:39.923Z,91.30
2019-03-22T06:22:39.912Z,91.26
2019-03-22T06:23:39.902Z,91.50
2019-03-22T06:24:39.912Z,91.20
2019-03-22T06:25:39.883Z,90.64
2019-03-22T06:26:39.882Z,91.56
2019-03-22T06:27:39.856Z,90.84
2019-03-22T06:28:39.844Z,90.64
2019-03-22T06:29:39.853Z,90.39
2019-03-22T06:30:39.823Z,90.08
2019-03-22T06:31:39.810Z,89.67
2019-03-22T06:32:39.800Z,89.67
2019-03-22T06:33:39.788Z,90.08
2019-03-22T06:34:39.797Z,89.36
2019-03-22T06:35:39.777Z,89.01
2019-03-22T06:36:39.757Z,88.24
2019-03-22T06:37:39.744Z,88.20
2019-03-22T06:38:39.732Z,87.34
2019-03-22T06:39:39.741Z,85.20
2019-03-22T06:40:39.708Z,82.06
2019-03-22T06:41:39.698Z,79.15
2019-03-22T06:42:39.688Z,77.29
2019-03-22T06:43:39.682Z,75.48
2019-03-22T06:44:39.702Z,73.98
2019-03-22T06:45:39.659Z,71.46
2019-03-22T06:46:39.638Z,70.20
2019-03-22T06:47:39.625Z,70.30
2019-03-22T06:48:39.616Z,68.91
2019-03-22T06:49:39.601Z,67.62
2019-03-22T06:50:39.614Z,65.52
2019-03-22T06:51:39.583Z,64.34
2019-03-22T06:52:39.572Z,62.85
2019-03-22T06:53:39.559Z,62.11
2019-03-22T06:54:39.544Z,60.86
2019-03-22T06:55:39.552Z,61.24
2019-03-22T06:56:39.524Z,59.56
2019-03-22T06:57:39.514Z,58.42
2019-03-22T06:58:39.501Z,57.98
2019-03-22T06:59:39.490Z,57.68
2019-03-22T07:00:39.494Z,56.64
2019-03-22T07:01:39.464Z,57.04
2019-03-22T07:02:39.454Z,56.08
2019-03-22T07:03:39.443Z,53.70
2019-03-22T07:04:39.432Z,54.41
2019-03-22T07:05:39.437Z,54.28
2019-03-22T07:06:39.403Z,51.68
2019-03-22T07:07:39.391Z,50.40
2019-03-22T07:08:39.381Z,48.74
2019-03-22T07:09:39.368Z,47.89
2019-03-22T07:10:39.376Z,46.76
2019-03-22T07:11:41.643Z,46.73
2019-03-22T07:12:39.334Z,46.54
2019-03-22T07:13:39.327Z,45.89
2019-03-22T07:14:39.310Z,44.36
2019-03-22T07:15:39.321Z,45.25
2019-03-22T07:16:39.286Z,44.22
2019-03-22T07:17:39.273Z,42.90
2019-03-22T07:18:39.267Z,43.19
2019-03-22T07:19:39.255Z,44.67
2019-03-22T07:20:39.241Z,44.59
2019-03-22T07:21:39.246Z,45.29
2019-03-22T07:22:39.221Z,45.31
2019-03-22T07:23:39.212Z,46.46
2019-03-22T07:24:39.206Z,46.08
2019-03-22T07:25:39.183Z,46.15
2019-03-22T07:26:39.204Z,45.51
2019-03-22T07:27:39.161Z,44.99
2019-03-22T07:28:39.149Z,45.01
2019-03-22T07:29:39.138Z,46.23
2019-03-22T07:30:39.126Z,45.43
2019-03-22T07:31:39.139Z,46.44
2019-03-22T07:32:39.110Z,44.99
2019-03-22T07:33:39.094Z,44.26
2019-03-22T07:34:39.080Z,43.10
2019-03-22T07:35:39.066Z,42.16
2019-03-22T07:36:39.057Z,42.40
2019-03-22T07:37:39.063Z,43.26
2019-03-22T07:38:39.031Z,45.10
2019-03-22T07:39:39.023Z,45.39
2019-03-22T07:40:39.015Z,44.14
2019-03-22T07:41:39.003Z,42.99
2019-03-22T07:42:39.006Z,41.75
2019-03-22T07:43:38.975Z,40.63
2019-03-22T07:44:38.963Z,40.31
2019-03-22T07:45:38.949Z,41.38
2019-03-22T07:46:38.939Z,40.36
2019-03-22T07:47:38.944Z,38.82
2019-03-22T07:48:38.972Z,38.64
2019-03-22T07:49:38.904Z,40.19
2019-03-22T07:50:38.892Z,41.67
2019-03-22T07:51:38.881Z,42.68
2019-03-22T07:52:38.889Z,42.47
2019-03-22T07:53:38.857Z,43.12
2019-03-22T07:54:38.845Z,43.04
2019-03-22T07:55:38.844Z,43.26
2019-03-22T07:56:38.824Z,43.82
2019-03-22T07:57:38.831Z,42.80
2019-03-22T07:58:38.800Z,43.77
2019-03-22T07:59:38.791Z,41.93
2019-03-22T08:00:38.779Z,40.83
2019-03-22T08:01:38.768Z,41.74
2019-03-22T08:02:38.775Z,42.41
2019-03-22T08:03:38.816Z,39.87
2019-03-22T08:04:38.735Z,40.44
2019-03-22T08:05:50.534Z,38.18
2019-03-22T08:06:39.714Z,37.45
2019-03-22T08:07:38.720Z,36.52
2019-03-22T08:08:38.687Z,36.02
2019-03-22T08:09:38.711Z,35.91
2019-03-22T08:10:38.663Z,35.59
2019-03-22T08:11:38.652Z,35.87
2019-03-22T08:12:38.659Z,34.78
2019-03-22T08:13:38.630Z,35.06
2019-03-22T08:14:38.617Z,36.19
2019-03-22T08:15:38.603Z,35.36
2019-03-22T08:16:38.596Z,34.64
2019-03-22T08:17:38.604Z,34.76
2019-03-22T08:18:38.575Z,34.33
2019-03-22T08:19:38.564Z,33.94
2019-03-22T08:20:38.994Z,33.72
2019-03-22T08:21:38.539Z,33.11
2019-03-22T08:22:38.568Z,33.40
2019-03-22T08:23:38.516Z,34.00
2019-03-22T08:24:38.525Z,33.19
2019-03-22T08:25:38.489Z,33.39
2019-03-22T08:26:38.478Z,31.87
2019-03-22T08:27:38.468Z,33.28
2019-03-22T08:28:38.515Z,32.17
2019-03-22T08:29:38.448Z,32.55
2019-03-22T08:30:43.325Z,32.06
2019-03-22T08:31:39.426Z,32.67
2019-03-22T08:32:38.428Z,33.09
2019-03-22T08:33:38.421Z,34.43
2019-03-22T08:34:38.396Z,34.83
2019-03-22T08:35:45.409Z,34.94
2019-03-22T08:36:38.369Z,34.83
2019-03-22T08:37:38.359Z,35.01
2019-03-22T08:38:38.380Z,34.10
2019-03-22T08:39:38.333Z,33.61
2019-03-22T08:40:38.359Z,34.13
2019-03-22T08:41:38.317Z,34.64
2019-03-22T08:42:38.305Z,34.41
2019-03-22T08:43:38.335Z,34.20
2019-03-22T08:44:38.305Z,33.89
2019-03-22T08:45:38.264Z,32.71
2019-03-22T08:46:38.260Z,33.94
2019-03-22T08:47:38.244Z,34.59
2019-03-22T08:48:38.275Z,33.77
2019-03-22T08:49:38.264Z,32.56
2019-03-22T08:50:38.209Z,31.65
2019-03-22T08:51:38.210Z,31.62
2019-03-22T08:52:38.191Z,30.68
2019-03-22T08:53:38.205Z,30.06
2019-03-22T08:54:38.531Z,29.46
2019-03-22T08:55:38.182Z,28.34
2019-03-22T08:56:38.142Z,27.72
2019-03-22T08:57:38.156Z,29.09
2019-03-22T08:58:38.163Z,27.78
2019-03-22T08:59:38.169Z,28.67
2019-03-22T09:00:39.490Z,27.50
2019-03-22T09:01:38.113Z,26.41
2019-03-22T09:02:38.073Z,27.12
2019-03-22T09:03:38.125Z,29.71
2019-03-22T09:04:38.101Z,31.01
2019-03-22T09:05:38.051Z,30.20
2019-03-22T09:06:38.032Z,30.47
2019-03-22T09:07:38.021Z,29.96
2019-03-22T09:08:38.018Z,29.16
2019-03-22T09:09:41.624Z,28.55
2019-03-22T09:10:37.986Z,28.63
2019-03-22T09:11:37.993Z,28.40
2019-03-22T09:12:37.963Z,28.45
2019-03-22T09:13:37.954Z,26.86
2019-03-22T09:14:37.976Z,26.33
2019-03-22T09:15:41.240Z,25.13
2019-03-22T09:16:37.919Z,25.02
2019-03-22T09:17:37.912Z,24.25
2019-03-22T09:18:37.897Z,25.46
2019-03-22T09:19:37.907Z,26.00
2019-03-22T09:20:37.875Z,27.67
2019-03-22T09:21:37.864Z,26.69
2019-03-22T09:22:37.855Z,25.67
2019-03-22T09:23:37.873Z,25.35
2019-03-22T09:24:39.372Z,25.26
2019-03-22T09:25:37.839Z,25.23
2019-03-22T09:26:47.072Z,23.93
2019-03-22T09:27:38.820Z,24.41
2019-03-22T09:28:37.788Z,24.21
2019-03-22T09:29:37.776Z,24.10
2019-03-22T09:30:37.797Z,22.94
2019-03-22T09:31:37.758Z,24.61
2019-03-22T09:32:37.745Z,24.21
2019-03-22T09:33:37.735Z,24.42
2019-03-22T09:34:37.823Z,24.93
2019-03-22T09:35:37.733Z,24.73
2019-03-22T09:36:37.700Z,25.00
2019-03-22T09:37:37.758Z,23.51
2019-03-22T09:38:37.678Z,23.29
2019-03-22T09:39:37.688Z,22.51
2019-03-22T09:40:37.683Z,22.79
2019-03-22T09:41:37.651Z,22.97
2019-03-22T09:42:37.638Z,21.80
2019-03-22T09:43:37.629Z,21.59
2019-03-22T09:44:43.445Z,22.31
2019-03-22T09:45:38.623Z,22.17
2019-03-22T09:46:37.592Z,23.42
2019-03-22T09:47:37.637Z,24.53
2019-03-22T09:48:37.571Z,25.99
2019-03-22T09:49:37.597Z,24.88
2019-03-22T09:50:37.548Z,25.09
2019-03-22T09:51:37.629Z,24.91
2019-03-22T09:52:37.537Z,25.54
2019-03-22T09:53:37.518Z,27.60
2019-03-22T09:54:37.506Z,25.99
2019-03-22T09:55:37.496Z,25.77
2019-03-22T09:56:47.010Z,25.29
2019-03-22T09:57:38.493Z,25.10
2019-03-22T09:58:37.462Z,25.26
2019-03-22T09:59:37.459Z,23.36
2019-03-22T10:00:37.446Z,21.89
2019-03-22T10:01:37.450Z,24.02
2019-03-22T10:02:37.415Z,25.07
2019-03-22T10:03:37.433Z,26.71
2019-03-22T10:04:37.453Z,28.11
2019-03-22T10:05:37.454Z,27.10
2019-03-22T10:06:37.390Z,26.12
2019-03-22T10:07:37.361Z,26.75
2019-03-22T10:08:37.397Z,25.33
2019-03-22T10:09:37.439Z,25.13
2019-03-22T10:10:37.330Z,23.92
2019-03-22T10:11:37.402Z,24.18
2019-03-22T10:12:37.354Z,21.61
2019-03-22T10:13:37.314Z,23.47
2019-03-22T10:14:37.284Z,22.21
2019-03-22T10:15:37.304Z,22.83
2019-03-22T10:16:37.381Z,22.83
2019-03-22T10:17:37.275Z,22.42
2019-03-22T10:18:37.289Z,23.22
2019-03-22T10:19:37.229Z,22.31
2019-03-22T10:20:37.227Z,21.01
2019-03-22T10:21:37.208Z,21.20
2019-03-22T10:22:37.278Z,21.32
2019-03-22T10:23:37.200Z,21.09
2019-03-22T10:24:37.176Z,21.09
2019-03-22T10:25:37.162Z,21.56
2019-03-22T10:26:37.169Z,21.34
2019-03-22T10:27:37.169Z,22.46
2019-03-22T10:28:37.139Z,24.16
2019-03-22T10:29:37.151Z,24.16
2019-03-22T10:30:37.128Z,25.20
2019-03-22T10:31:37.912Z,25.90
2019-03-22T10:32:37.107Z,24.60
2019-03-22T10:33:37.075Z,24.55
2019-03-22T10:34:39.642Z,23.95
2019-03-22T10:35:37.057Z,24.14
2019-03-22T10:36:37.114Z,23.05
2019-03-22T10:37:37.049Z,23.61
2019-03-22T10:38:37.074Z,22.23
2019-03-22T10:39:37.014Z,22.61
2019-03-22T10:40:37.095Z,21.92
2019-03-22T10:41:37.055Z,22.41
2019-03-22T10:42:36.999Z,22.02
2019-03-22T10:43:36.965Z,22.30
2019-03-22T10:44:39.373Z,20.82
2019-03-22T10:45:36.948Z,21.33
2019-03-22T10:46:37.065Z,21.45
2019-03-22T10:47:36.923Z,22.31
2019-03-22T10:48:36.989Z,21.39
2019-03-22T10:49:36.906Z,20.30
2019-03-22T10:50:36.900Z,20.92
2019-03-22T10:51:36.889Z,20.93
2019-03-22T10:52:36.875Z,19.94
2019-03-22T10:53:36.892Z,20.51
2019-03-22T10:54:36.906Z,20.69
2019-03-22T10:55:36.837Z,20.26
2019-03-22T10:56:36.828Z,19.74
2019-03-22T10:57:40.127Z,20.21
2019-03-22T10:58:36.824Z,18.57
2019-03-22T10:59:36.793Z,19.55
2019-03-22T11:00:36.797Z,20.06
2019-03-22T11:01:46.881Z,19.31
2019-03-22T11:02:37.758Z,20.41
2019-03-22T11:03:36.880Z,21.39
2019-03-22T11:04:36.740Z,20.98
2019-03-22T11:05:36.730Z,20.72
2019-03-22T11:06:36.719Z,21.23
2019-03-22T11:07:36.710Z,21.81
2019-03-22T11:08:36.719Z,21.50
2019-03-22T11:09:36.690Z,21.69
2019-03-22T11:10:36.676Z,21.17
2019-03-22T11:11:36.668Z,20.64
2019-03-22T11:12:36.659Z,19.25
2019-03-22T11:13:36.664Z,20.10
2019-03-22T11:14:36.638Z,19.87
2019-03-22T11:15:36.624Z,20.82
2019-03-22T11:16:36.620Z,20.43
2019-03-22T11:17:36.605Z,20.94
2019-03-22T11:18:37.513Z,20.74
2019-03-22T11:19:36.585Z,21.52
2019-03-22T11:20:36.575Z,21.25
2019-03-22T11:21:36.562Z,23.05
2019-03-22T11:22:36.551Z,22.25
2019-03-22T11:23:36.581Z,22.42
2019-03-22T11:24:36.531Z,22.41
2019-03-22T11:25:36.518Z,20.42
2019-03-22T11:26:36.507Z,20.10
2019-03-22T11:27:36.498Z,22.25
2019-03-22T11:28:36.522Z,20.19
2019-03-22T11:29:36.497Z,19.54
2019-03-22T11:30:36.466Z,21.32
2019-03-22T11:31:40.235Z,20.61
2019-03-22T11:32:36.446Z,19.71
2019-03-22T11:33:36.433Z,19.50
2019-03-22T11:34:36.442Z,20.19
2019-03-22T11:35:37.266Z,20.23
2019-03-22T11:36:36.398Z,21.12
2019-03-22T11:37:36.389Z,21.03
2019-03-22T11:38:36.378Z,22.41
2019-03-22T11:39:36.386Z,23.81
2019-03-22T11:40:36.356Z,22.41
2019-03-22T11:41:36.344Z,21.21
2019-03-22T11:42:36.332Z,21.73
2019-03-22T11:43:36.325Z,20.95
2019-03-22T11:44:36.329Z,21.44
2019-03-22T11:45:36.300Z,21.42
2019-03-22T11:46:36.291Z,21.86
2019-03-22T11:47:36.287Z,22.25
2019-03-22T11:48:36.288Z,21.38
2019-03-22T11:49:36.281Z,22.37
2019-03-22T11:50:36.246Z,23.35
2019-03-22T11:51:36.234Z,22.55
2019-03-22T11:52:36.224Z,22.26
2019-03-22T11:53:36.213Z,21.77
2019-03-22T11:54:36.222Z,23.35
2019-03-22T11:55:36.192Z,22.95
2019-03-22T11:56:36.185Z,23.05
2019-03-22T11:57:36.173Z,22.24
2019-03-22T11:58:36.158Z,22.02
2019-03-22T11:59:36.168Z,20.93
2019-03-22T12:00:36.141Z,21.14
2019-03-22T12:01:36.134Z,21.34
2019-03-22T12:02:36.117Z,22.11
2019-03-22T12:03:36.106Z,21.12
2019-03-22T12:04:36.112Z,21.03
2019-03-22T12:05:40.350Z,22.09
2019-03-22T12:06:36.073Z,20.90
2019-03-22T12:07:36.062Z,20.22
2019-03-22T12:08:36.052Z,20.82
2019-03-22T12:09:36.061Z,21.59
2019-03-22T12:10:36.030Z,20.09
2019-03-22T12:11:36.015Z,19.79
2019-03-22T12:12:36.008Z,20.59
2019-03-22T12:13:35.995Z,20.41
2019-03-22T12:14:35.983Z,20.21
2019-03-22T12:15:35.992Z,20.40
2019-03-22T12:16:35.965Z,20.23
2019-03-22T12:17:35.953Z,21.70
2019-03-22T12:18:35.939Z,21.41
2019-03-22T12:19:35.930Z,20.42
2019-03-22T12:20:35.935Z,22.76
2019-03-22T12:21:35.908Z,20.81
2019-03-22T12:22:35.894Z,20.69
2019-03-22T12:23:35.889Z,20.48
2019-03-22T12:24:35.876Z,19.98
2019-03-22T12:25:35.882Z,20.95
2019-03-22T12:26:35.853Z,18.70
2019-03-22T12:27:36.803Z,19.78
2019-03-22T12:28:35.836Z,19.62
2019-03-22T12:29:35.817Z,19.67
2019-03-22T12:30:35.831Z,21.92
2019-03-22T12:31:35.799Z,22.02
2019-03-22T12:32:35.785Z,20.83
2019-03-22T12:33:35.777Z,21.24
2019-03-22T12:34:35.762Z,22.64
2019-03-22T12:35:35.773Z,22.25
2019-03-22T12:36:35.741Z,22.08
2019-03-22T12:37:35.732Z,23.13
2019-03-22T12:38:35.721Z,22.22
2019-03-22T12:39:35.709Z,21.51
2019-03-22T12:40:35.717Z,20.06
2019-03-22T12:41:35.687Z,21.03
2019-03-22T12:42:35.674Z,19.16
2019-03-22T12:43:35.667Z,19.15
2019-03-22T12:44:35.653Z,18.85
2019-03-22T12:45:35.661Z,20.34
2019-03-22T12:46:35.631Z,20.83
2019-03-22T12:47:35.619Z,20.33
2019-03-22T12:48:35.612Z,21.52
2019-03-22T12:49:35.599Z,21.14
2019-03-22T12:50:35.607Z,19.96
2019-03-22T12:51:35.575Z,20.65
2019-03-22T12:52:35.564Z,20.26